createdAt,value
2018-12-13T00:00:58.814Z,1.46
2018-12-13T00:03:32.783Z,1.47
2018-12-13T00:06:05.955Z,1.45
2018-12-13T00:08:39.780Z,1.39
2018-12-13T00:11:10.488Z,1.32
2018-12-13T00:13:41.330Z,1.32
2018-12-13T00:16:11.938Z,1.29
2018-12-13T00:18:42.565Z,1.32
2018-12-13T00:21:15.767Z,1.31
2018-12-13T00:23:46.419Z,1.38
2018-12-13T00:26:17.076Z,1.42
2018-12-13T00:28:47.755Z,1.43
2018-12-13T00:31:19.678Z,1.45
2018-12-13T00:33:50.237Z,1.45
2018-12-13T00:36:20.863Z,1.40
2018-12-13T00:38:51.472Z,1.40
2018-12-13T00:41:22.171Z,1.41
2018-12-13T00:43:57.860Z,1.37
2018-12-13T00:46:32.186Z,1.35
2018-12-13T00:49:08.618Z,1.31
2018-12-13T00:51:44.210Z,1.35
2018-12-13T00:54:20.206Z,1.39
2018-12-13T00:56:54.826Z,1.34
2018-12-13T00:59:25.453Z,1.33
2018-12-13T01:01:57.518Z,1.37
2018-12-13T01:04:28.185Z,1.34
2018-12-13T01:07:00.173Z,1.27
2018-12-13T01:09:30.917Z,1.14
2018-12-13T01:12:01.684Z,1.05
2018-12-13T01:14:32.450Z,0.94
2018-12-13T01:17:08.709Z,0.79
2018-12-13T01:19:39.275Z,0.72
2018-12-13T01:22:09.902Z,0.66
2018-12-13T01:24:41.843Z,0.62
2018-12-13T01:27:12.495Z,0.66
2018-12-13T01:29:44.618Z,0.73
2018-12-13T01:32:19.041Z,0.78
2018-12-13T01:34:51.021Z,0.83
2018-12-13T01:37:28.348Z,0.82
2018-12-13T01:40:02.546Z,0.94
2018-12-13T01:42:36.382Z,1.01
2018-12-13T01:45:12.852Z,1.13
2018-12-13T01:47:44.993Z,1.21
2018-12-13T01:50:20.796Z,1.20
2018-12-13T01:52:53.168Z,1.25
2018-12-13T01:55:27.491Z,1.26
2018-12-13T01:58:01.577Z,1.29
2018-12-13T02:00:35.583Z,1.32
2018-12-13T02:03:08.127Z,1.26
2018-12-13T02:05:48.448Z,1.22
2018-12-13T02:08:24.707Z,1.11
2018-12-13T02:10:56.574Z,1.05
2018-12-13T02:13:27.322Z,0.98
2018-12-13T02:15:58.209Z,0.97
2018-12-13T02:18:29.817Z,0.89
2018-12-13T02:21:04.058Z,0.81
2018-12-13T02:23:38.524Z,0.81
2018-12-13T02:26:10.844Z,0.76
2018-12-13T02:28:45.030Z,0.76
2018-12-13T02:31:23.014Z,0.72
2018-12-13T02:34:00.799Z,0.67
2018-12-13T02:36:32.900Z,0.65
2018-12-13T02:39:03.949Z,0.62
2018-12-13T02:41:34.658Z,0.64
2018-12-13T02:44:06.545Z,0.61
2018-12-13T02:46:37.588Z,0.60
2018-12-13T02:49:11.051Z,0.55
2018-12-13T02:51:41.874Z,0.51
2018-12-13T02:54:13.414Z,0.54
2018-12-13T02:56:44.149Z,0.48
2018-12-13T02:59:18.631Z,0.45
2018-12-13T03:01:52.329Z,0.51
2018-12-13T03:04:28.592Z,0.63
2018-12-13T03:07:05.190Z,0.64
2018-12-13T03:09:35.757Z,0.60
2018-12-13T03:12:06.634Z,0.57
2018-12-13T03:14:37.638Z,0.48
2018-12-13T03:17:08.172Z,0.47
2018-12-13T03:19:38.779Z,0.49
2018-12-13T03:22:09.428Z,0.46
2018-12-13T03:24:40.396Z,0.46
2018-12-13T03:27:11.044Z,0.42
2018-12-13T03:29:44.285Z,-0.53
2018-12-13T03:32:15.232Z,0.44
2018-12-13T03:34:46.440Z,0.51
2018-12-13T03:37:21.126Z,0.50
2018-12-13T03:39:55.731Z,0.54
2018-12-13T03:42:26.364Z,0.53
2018-12-13T03:45:00.500Z,0.50
2018-12-13T03:47:34.909Z,0.50
2018-12-13T03:50:10.796Z,0.46
2018-12-13T03:52:44.764Z,0.42
2018-12-13T03:55:18.730Z,0.40
2018-12-13T03:57:51.219Z,0.35
2018-12-13T04:00:27.667Z,0.35
2018-12-13T04:03:04.540Z,0.38
2018-12-13T04:05:38.279Z,0.39
2018-12-13T04:08:12.277Z,0.37
2018-12-13T04:10:48.767Z,0.41
2018-12-13T04:13:22.782Z,0.54
2018-12-13T04:15:59.068Z,0.58
2018-12-13T04:18:30.094Z,0.65
2018-12-13T04:21:02.736Z,0.63
2018-12-13T04:23:34.056Z,0.65
2018-12-13T04:26:05.324Z,0.64
2018-12-13T04:28:36.140Z,0.74
2018-12-13T04:31:08.548Z,0.67
2018-12-13T04:33:39.826Z,0.67
2018-12-13T04:36:11.145Z,0.64
2018-12-13T04:38:42.961Z,0.62
2018-12-13T04:41:14.036Z,0.60
2018-12-13T04:43:45.182Z,0.65
2018-12-13T04:46:17.056Z,0.68
2018-12-13T04:48:48.091Z,0.72
2018-12-13T04:51:24.959Z,0.67
2018-12-13T04:53:57.295Z,0.71
2018-12-13T04:56:29.803Z,0.83
2018-12-13T04:59:04.528Z,0.74
2018-12-13T05:01:36.228Z,0.79
2018-12-13T05:04:08.591Z,0.79
2018-12-13T05:06:39.461Z,0.72
2018-12-13T05:09:10.501Z,0.79
2018-12-13T05:11:44.690Z,0.84
2018-12-13T05:14:15.559Z,0.77
2018-12-13T05:16:46.402Z,0.79
2018-12-13T05:19:17.333Z,0.75
2018-12-13T05:21:48.496Z,0.79
2018-12-13T05:24:19.375Z,0.82
2018-12-13T05:26:50.226Z,0.85
2018-12-13T05:29:20.986Z,0.78
2018-12-13T05:31:54.336Z,0.78
2018-12-13T05:34:25.459Z,0.77
2018-12-13T05:36:56.356Z,0.78
2018-12-13T05:39:27.521Z,0.89
2018-12-13T05:41:58.432Z,0.94
2018-12-13T05:44:29.326Z,0.87
2018-12-13T05:47:01.324Z,0.90
2018-12-13T05:49:32.173Z,0.86
2018-12-13T05:52:04.204Z,0.80
2018-12-13T05:54:37.486Z,0.82
2018-12-13T05:57:10.318Z,0.77
2018-12-13T05:59:41.289Z,0.79
2018-12-13T06:02:17.110Z,0.79
2018-12-13T06:04:48.515Z,0.79
2018-12-13T06:07:19.524Z,0.74
2018-12-13T06:09:50.855Z,0.79
2018-12-13T06:12:21.857Z,0.89
2018-12-13T06:14:54.923Z,0.89
2018-12-13T06:17:31.618Z,0.89
2018-12-13T06:20:06.518Z,0.88
2018-12-13T06:22:38.695Z,0.92
2018-12-13T06:25:12.719Z,0.96
2018-12-13T06:27:46.932Z,1.00
2018-12-13T06:30:33.961Z,1.01
2018-12-13T06:33:11.433Z,0.93
2018-12-13T06:35:43.002Z,0.90
2018-12-13T06:38:14.074Z,0.89
2018-12-13T06:40:44.966Z,0.89
2018-12-13T06:43:15.861Z,0.94
2018-12-13T06:45:46.822Z,0.90
2018-12-13T06:48:18.188Z,0.94
2018-12-13T06:50:53.432Z,0.93
2018-12-13T06:53:28.158Z,0.91
2018-12-13T06:56:02.665Z,0.91
2018-12-13T06:58:36.698Z,0.94
2018-12-13T07:01:08.024Z,0.93
2018-12-13T07:03:44.875Z,0.98
2018-12-13T07:06:19.647Z,0.97
2018-12-13T07:08:53.897Z,0.96
2018-12-13T07:11:25.731Z,1.01
2018-12-13T07:14:00.035Z,1.02
2018-12-13T07:16:34.964Z,1.06
2018-12-13T07:19:06.361Z,1.09
2018-12-13T07:21:37.224Z,1.07
2018-12-13T07:24:11.672Z,1.08
2018-12-13T07:26:46.369Z,1.09
2018-12-13T07:29:20.223Z,1.04
2018-12-13T07:31:56.383Z,0.98
2018-12-13T07:34:30.554Z,0.91
2018-12-13T07:37:05.141Z,0.85
2018-12-13T07:39:38.957Z,0.79
2018-12-13T07:42:10.334Z,0.73
2018-12-13T07:44:41.318Z,0.68
2018-12-13T07:47:12.386Z,0.71
2018-12-13T07:49:43.396Z,0.72
2018-12-13T07:52:18.955Z,0.79
2018-12-13T07:54:51.374Z,0.80
2018-12-13T07:57:22.274Z,0.80
2018-12-13T07:59:53.421Z,0.79
2018-12-13T08:02:25.133Z,0.85
2018-12-13T08:04:56.108Z,0.88
2018-12-13T08:07:27.059Z,0.92
2018-12-13T08:09:59.331Z,0.97
2018-12-13T08:12:30.290Z,0.99
2018-12-13T08:15:05.389Z,0.99
2018-12-13T08:17:39.787Z,1.03
2018-12-13T08:20:16.112Z,1.09
2018-12-13T08:22:49.853Z,1.10
2018-12-13T08:25:26.277Z,1.19
2018-12-13T08:28:02.723Z,1.29
2018-12-13T08:30:35.418Z,1.24
2018-12-13T08:33:07.669Z,1.29
2018-12-13T08:35:44.299Z,1.21
2018-12-13T08:38:16.262Z,1.12
2018-12-13T08:40:48.172Z,1.11
2018-12-13T08:43:19.233Z,1.12
2018-12-13T08:45:50.126Z,1.18
2018-12-13T08:48:20.949Z,1.16
2018-12-13T08:50:54.280Z,1.05
2018-12-13T08:53:25.311Z,0.88
2018-12-13T08:55:56.018Z,0.88
2018-12-13T08:58:27.091Z,0.98
2018-12-13T09:00:57.779Z,1.03
2018-12-13T09:03:28.746Z,1.00
2018-12-13T09:05:59.845Z,0.99
2018-12-13T09:08:33.584Z,1.00
2018-12-13T09:11:03.602Z,1.17
2018-12-13T09:13:34.463Z,1.08
2018-12-13T09:16:05.238Z,1.13
2018-12-13T09:18:36.517Z,1.10
2018-12-13T09:21:07.274Z,1.23
2018-12-13T09:23:40.760Z,1.36
2018-12-13T09:26:16.745Z,1.34
2018-12-13T09:28:51.574Z,1.40
2018-12-13T09:31:28.090Z,1.31
2018-12-13T09:34:02.457Z,1.34
2018-12-13T09:36:33.947Z,1.32
2018-12-13T09:39:07.182Z,1.24
2018-12-13T09:41:43.581Z,0.88
2018-12-13T09:44:19.976Z,1.32
2018-12-13T09:46:54.091Z,1.35
2018-12-13T09:49:28.963Z,1.38
2018-12-13T09:52:03.709Z,1.32
2018-12-13T09:54:39.604Z,1.29
2018-12-13T09:57:10.816Z,1.34
2018-12-13T09:59:41.534Z,1.42
2018-12-13T10:02:12.292Z,1.44
2018-12-13T10:04:43.240Z,1.43
2018-12-13T10:07:13.950Z,1.57
2018-12-13T10:09:44.834Z,1.48
2018-12-13T10:12:16.729Z,1.37
2018-12-13T10:14:48.106Z,1.29
2018-12-13T10:17:20.414Z,1.29
2018-12-13T10:19:51.151Z,1.37
2018-12-13T10:22:26.138Z,1.44
2018-12-13T10:25:00.253Z,1.54
2018-12-13T10:27:39.387Z,1.61
2018-12-13T10:30:10.243Z,1.67
2018-12-13T10:32:41.036Z,1.66
2018-12-13T10:35:12.168Z,1.61
2018-12-13T10:37:43.049Z,1.56
2018-12-13T10:40:14.243Z,1.38
2018-12-13T10:42:45.296Z,1.31
2018-12-13T10:45:16.362Z,1.37
2018-12-13T10:47:48.317Z,1.37
2018-12-13T10:50:19.207Z,1.39
2018-12-13T10:52:50.207Z,1.45
2018-12-13T10:55:20.806Z,1.51
2018-12-13T10:57:52.584Z,1.58
2018-12-13T11:00:27.999Z,1.66
2018-12-13T11:03:25.621Z,1.54
2018-12-13T11:05:58.218Z,1.50
2018-12-13T11:08:30.474Z,1.42
2018-12-13T11:11:01.257Z,1.32
2018-12-13T11:13:32.059Z,1.30
2018-12-13T11:16:03.715Z,1.41
2018-12-13T11:18:34.382Z,1.39
2018-12-13T11:21:06.246Z,1.45
2018-12-13T11:23:37.839Z,1.36
2018-12-13T11:26:08.545Z,1.44
2018-12-13T11:28:50.622Z,1.43
2018-12-13T11:31:21.237Z,1.54
2018-12-13T11:33:53.529Z,1.47
2018-12-13T11:36:24.240Z,1.45
2018-12-13T11:38:55.719Z,1.42
2018-12-13T11:41:26.967Z,1.48
2018-12-13T11:44:02.326Z,1.45
2018-12-13T11:46:33.483Z,1.39
2018-12-13T11:49:12.309Z,1.35
2018-12-13T11:51:43.646Z,1.32
2018-12-13T11:54:49.929Z,1.25
2018-12-13T11:57:20.998Z,1.20
2018-12-13T11:59:51.765Z,1.22
2018-12-13T12:02:24.118Z,1.27
2018-12-13T12:04:55.065Z,1.22
2018-12-13T12:07:27.411Z,1.17
2018-12-13T12:09:58.448Z,1.10
2018-12-13T12:12:29.190Z,1.09
2018-12-13T12:14:59.931Z,0.97
2018-12-13T12:17:30.791Z,0.90
2018-12-13T12:20:01.496Z,0.86
2018-12-13T12:22:32.216Z,0.79
2018-12-13T12:25:04.179Z,0.82
2018-12-13T12:27:37.922Z,0.84
2018-12-13T12:30:12.235Z,0.87
2018-12-13T12:32:48.877Z,0.96
2018-12-13T12:35:25.216Z,0.95
2018-12-13T12:38:00.156Z,0.89
2018-12-13T12:40:37.087Z,0.97
2018-12-13T12:43:09.743Z,0.98
2018-12-13T12:45:44.740Z,0.97
2018-12-13T12:48:19.760Z,1.05
2018-12-13T12:50:53.710Z,1.04
2018-12-13T12:53:27.843Z,1.04
2018-12-13T12:56:04.807Z,0.95
2018-12-13T12:58:40.473Z,1.02
2018-12-13T13:01:16.523Z,1.07
2018-12-13T13:03:52.569Z,1.06
2018-12-13T13:06:32.976Z,1.08
2018-12-13T13:09:14.333Z,1.08
2018-12-13T13:11:50.905Z,0.98
2018-12-13T13:14:27.048Z,0.98
2018-12-13T13:17:01.719Z,0.99
2018-12-13T13:19:43.586Z,1.06
2018-12-13T13:22:14.728Z,0.99
2018-12-13T13:24:45.515Z,1.02
2018-12-13T13:27:16.377Z,1.01
2018-12-13T13:29:49.172Z,1.01
2018-12-13T13:32:20.609Z,0.96
2018-12-13T13:34:55.083Z,1.03
2018-12-13T13:37:25.916Z,1.11
2018-12-13T13:39:56.792Z,1.13
2018-12-13T13:42:28.075Z,1.13
2018-12-13T13:45:02.482Z,1.10
2018-12-13T13:47:33.120Z,1.06
2018-12-13T13:50:04.055Z,1.00
2018-12-13T13:52:35.080Z,0.93
2018-12-13T13:55:09.317Z,0.89
2018-12-13T13:57:40.000Z,0.90
2018-12-13T14:00:11.268Z,0.90
2018-12-13T14:02:42.513Z,0.91
2018-12-13T14:05:13.476Z,0.91
2018-12-13T14:07:44.237Z,0.89
2018-12-13T14:10:16.071Z,0.82
2018-12-13T14:12:47.123Z,0.80
2018-12-13T14:15:18.288Z,0.72
2018-12-13T14:17:49.619Z,0.77
2018-12-13T14:20:23.669Z,0.74
2018-12-13T14:22:55.845Z,0.75
2018-12-13T14:25:32.562Z,0.78
2018-12-13T14:28:06.953Z,0.80
2018-12-13T14:30:41.429Z,0.83
2018-12-13T14:33:17.035Z,0.81
2018-12-13T14:35:48.200Z,0.79
2018-12-13T14:38:22.614Z,0.78
2018-12-13T14:40:53.869Z,0.77
2018-12-13T14:43:24.923Z,0.78
2018-12-13T14:45:55.760Z,0.70
2018-12-13T14:48:26.654Z,0.69
2018-12-13T14:50:58.335Z,0.66
2018-12-13T14:53:29.368Z,0.68
2018-12-13T14:56:00.540Z,0.73
2018-12-13T14:58:34.452Z,0.77
2018-12-13T15:01:10.110Z,0.74
2018-12-13T15:03:50.231Z,0.76
2018-12-13T15:06:25.337Z,0.79
2018-12-13T15:08:59.212Z,0.77
2018-12-13T15:11:45.594Z,0.80
2018-12-13T15:14:22.879Z,0.82
2018-12-13T15:16:59.622Z,0.84
2018-12-13T15:19:34.134Z,0.82
2018-12-13T15:22:09.100Z,0.83
2018-12-13T15:24:43.069Z,0.81
2018-12-13T15:27:17.706Z,0.75
2018-12-13T15:29:52.262Z,0.72
2018-12-13T15:32:26.414Z,0.79
2018-12-13T15:35:00.715Z,0.83
2018-12-13T15:37:37.101Z,0.76
2018-12-13T15:40:11.449Z,0.74
2018-12-13T15:42:44.846Z,0.77
2018-12-13T15:45:19.895Z,0.82
2018-12-13T15:47:54.038Z,0.84
2018-12-13T15:50:27.910Z,0.79
2018-12-13T15:55:33.935Z,0.74
2018-12-13T15:58:10.249Z,0.76
2018-12-13T16:00:42.818Z,0.78
2018-12-13T16:03:18.795Z,0.82
2018-12-13T16:05:54.756Z,0.82
2018-12-13T16:08:26.936Z,0.84
2018-12-13T16:11:01.013Z,0.90
2018-12-13T16:13:37.056Z,0.84
2018-12-13T16:16:12.936Z,0.82
2018-12-13T16:18:47.173Z,0.80
2018-12-13T16:21:20.043Z,0.80
2018-12-13T16:23:51.297Z,0.84
2018-12-13T16:26:22.038Z,0.79
2018-12-13T16:28:52.962Z,0.78
2018-12-13T16:31:25.241Z,0.74
2018-12-13T16:34:00.152Z,0.76
2018-12-13T16:36:34.076Z,0.75
2018-12-13T16:39:08.170Z,0.72
2018-12-13T16:41:52.039Z,0.74
2018-12-13T16:44:28.388Z,0.79
2018-12-13T16:47:05.300Z,0.79
2018-12-13T16:49:38.693Z,-0.67
2018-12-13T16:52:13.730Z,0.88
2018-12-13T16:54:48.408Z,0.90
2018-12-13T16:57:22.496Z,0.96
2018-12-13T16:59:57.574Z,0.95
2018-12-13T17:02:31.495Z,0.96
2018-12-13T17:05:07.697Z,0.97
2018-12-13T17:07:41.812Z,0.99
2018-12-13T17:10:17.540Z,1.02
2018-12-13T17:12:51.368Z,1.07
2018-12-13T17:15:25.817Z,1.02
2018-12-13T17:17:59.865Z,1.05
2018-12-13T17:20:33.877Z,1.06
2018-12-13T17:23:06.678Z,1.10
2018-12-13T17:25:37.830Z,1.09
2018-12-13T17:28:08.759Z,1.09
2018-12-13T17:30:39.583Z,0.72
2018-12-13T17:33:13.773Z,1.04
2018-12-13T17:35:47.657Z,1.01
2018-12-13T17:38:22.623Z,1.00
2018-12-13T17:40:55.517Z,0.99
2018-12-13T17:43:31.441Z,1.02
2018-12-13T17:46:07.346Z,1.02
2018-12-13T17:48:41.625Z,1.01
2018-12-13T17:51:15.577Z,1.01
2018-12-13T17:53:51.030Z,0.98
2018-12-13T17:56:25.142Z,0.98
2018-12-13T17:59:01.358Z,0.97
2018-12-13T18:01:35.798Z,0.94
2018-12-13T18:04:11.799Z,0.95
2018-12-13T18:06:43.794Z,1.02
2018-12-13T18:09:18.699Z,1.02
2018-12-13T18:11:50.769Z,0.99
2018-12-13T18:14:24.593Z,1.00
2018-12-13T18:16:59.323Z,1.01
2018-12-13T18:19:31.254Z,0.99
2018-12-13T18:22:08.034Z,1.02
2018-12-13T18:24:45.156Z,1.03
2018-12-13T18:27:17.587Z,0.74
2018-12-13T18:29:54.331Z,1.05
2018-12-13T18:32:30.874Z,1.02
2018-12-13T18:35:05.876Z,1.08
2018-12-13T18:37:40.508Z,1.08
2018-12-13T18:40:15.659Z,1.05
2018-12-13T18:42:49.572Z,0.99
2018-12-13T18:45:24.578Z,1.00
2018-12-13T18:47:56.123Z,1.05
2018-12-13T18:50:28.425Z,1.06
2018-12-13T18:53:02.528Z,1.07
2018-12-13T18:55:36.513Z,1.14
2018-12-13T18:58:07.764Z,1.19
2018-12-13T19:00:38.606Z,1.22
2018-12-13T19:03:09.863Z,1.19
2018-12-13T19:05:40.736Z,1.18
2018-12-13T19:08:11.844Z,1.10
2018-12-13T19:10:42.939Z,1.01
2018-12-13T19:13:13.922Z,1.05
2018-12-13T19:15:44.757Z,1.07
2018-12-13T19:18:15.595Z,1.04
2018-12-13T19:20:47.953Z,1.06
2018-12-13T19:23:18.783Z,1.04
2018-12-13T19:25:49.639Z,1.14
2018-12-13T19:28:20.462Z,1.12
2018-12-13T19:30:52.634Z,1.12
2018-12-13T19:33:23.881Z,1.12
2018-12-13T19:35:54.915Z,1.16
2018-12-13T19:38:25.690Z,1.20
2018-12-13T19:40:56.949Z,1.24
2018-12-13T19:43:27.758Z,1.21
2018-12-13T19:45:58.765Z,1.16
2018-12-13T19:48:29.746Z,1.16
2018-12-13T19:51:01.285Z,1.18
2018-12-13T19:53:32.323Z,1.20
2018-12-13T19:56:03.049Z,1.21
2018-12-13T19:58:35.277Z,1.23
2018-12-13T20:01:06.083Z,1.19
2018-12-13T20:03:37.084Z,1.18
2018-12-13T20:06:15.409Z,1.19
2018-12-13T20:08:46.343Z,1.17
2018-12-13T20:11:17.376Z,1.18
2018-12-13T20:13:48.164Z,1.15
2018-12-13T20:16:18.867Z,1.17
2018-12-13T20:18:51.000Z,1.16
2018-12-13T20:21:21.894Z,1.12
2018-12-13T20:23:52.727Z,1.12
2018-12-13T20:26:23.752Z,1.14
2018-12-13T20:28:55.636Z,1.17
2018-12-13T20:31:30.553Z,1.18
2018-12-13T20:34:05.062Z,1.20
2018-12-13T20:36:41.287Z,1.20
2018-12-13T20:39:15.415Z,1.25
2018-12-13T20:41:50.592Z,1.24
2018-12-13T20:44:27.332Z,1.25
2018-12-13T20:47:02.329Z,1.22
2018-12-13T20:49:36.576Z,1.21
2018-12-13T20:52:08.073Z,1.18
2018-12-13T20:54:40.091Z,1.16
2018-12-13T20:57:11.639Z,1.17
2018-12-13T20:59:42.509Z,1.13
2018-12-13T21:02:13.194Z,1.12
2018-12-13T21:04:43.966Z,1.18
2018-12-13T21:07:35.780Z,1.13
2018-12-13T21:10:09.781Z,1.27
2018-12-13T21:12:40.774Z,1.24
2018-12-13T21:15:15.061Z,1.25
2018-12-13T21:17:56.282Z,1.22
2018-12-13T21:20:30.229Z,1.23
2018-12-13T21:23:07.027Z,1.23
2018-12-13T21:25:44.379Z,1.27
2018-12-13T21:28:18.757Z,1.34
2018-12-13T21:30:52.321Z,1.29
2018-12-13T21:33:27.684Z,1.29
2018-12-13T21:36:04.722Z,1.33
2018-12-13T21:38:39.039Z,1.29
2018-12-13T21:41:16.340Z,1.29
2018-12-13T21:43:53.349Z,1.31
2018-12-13T21:46:26.206Z,1.25
2018-12-13T21:49:00.328Z,1.30
2018-12-13T21:51:34.803Z,1.29
2018-12-13T21:54:07.576Z,1.25
2018-12-13T21:56:45.747Z,1.27
2018-12-13T21:59:20.592Z,1.27
2018-12-13T22:01:53.187Z,1.19
2018-12-13T22:04:29.471Z,1.19
2018-12-13T22:07:06.183Z,1.11
2018-12-13T22:09:39.035Z,1.07
2018-12-13T22:12:14.381Z,1.08
2018-12-13T22:14:52.236Z,1.11
2018-12-13T22:17:27.133Z,1.19
2018-12-13T22:20:01.643Z,1.16
2018-12-13T22:22:38.099Z,1.17
2018-12-13T22:25:19.593Z,1.17
2018-12-13T22:28:03.573Z,1.12
2018-12-13T22:30:34.913Z,1.14
2018-12-13T22:33:07.390Z,1.09
2018-12-13T22:35:39.292Z,1.12
2018-12-13T22:38:16.821Z,1.07
2018-12-13T22:40:53.517Z,1.16
2018-12-13T22:43:28.355Z,1.13
2018-12-13T22:46:04.699Z,1.11
2018-12-13T22:48:37.596Z,1.11
2018-12-13T22:51:14.503Z,1.14
2018-12-13T22:54:07.585Z,1.12
2018-12-13T22:56:57.118Z,1.13
2018-12-13T22:59:40.617Z,1.11
2018-12-13T23:02:31.261Z,1.07
2018-12-13T23:08:17.387Z,1.03
2018-12-13T23:13:49.159Z,1.03
2018-12-13T23:16:22.823Z,1.06
2018-12-13T23:18:55.671Z,1.09
2018-12-13T23:21:28.340Z,1.04
2018-12-13T23:24:02.940Z,1.02
2018-12-13T23:26:36.948Z,1.01
2018-12-13T23:29:11.682Z,1.05
2018-12-13T23:31:44.259Z,1.09
2018-12-13T23:34:18.712Z,1.08
2018-12-13T23:36:54.128Z,1.01
2018-12-13T23:39:29.073Z,0.98
2018-12-13T23:42:03.104Z,0.99
2018-12-13T23:44:37.328Z,0.96
2018-12-13T23:47:14.748Z,0.96
2018-12-13T23:49:49.300Z,0.99
2018-12-13T23:52:30.377Z,1.00
2018-12-13T23:55:03.527Z,1.01
2018-12-13T23:57:39.873Z,1.02
